createdAt,value
2019-05-26T03:04:21.097Z,13.30
2019-05-26T03:07:05.921Z,14.17
2019-05-26T03:10:03.416Z,15.57
2019-05-26T03:12:51.244Z,16.70
2019-05-26T03:15:55.230Z,16.50
2019-05-26T03:18:54.324Z,15.80
2019-05-26T03:21:18.338Z,16.77
2019-05-26T03:24:04.524Z,18.17
2019-05-26T03:26:35.203Z,17.83
2019-05-26T03:29:10.687Z,18.63
2019-05-26T03:32:00.834Z,19.00
2019-05-26T03:34:30.702Z,18.93
2019-05-26T03:37:02.040Z,19.73
2019-05-26T03:39:45.351Z,19.97
2019-05-26T03:42:15.111Z,20.60
2019-05-26T03:44:50.392Z,18.87
2019-05-26T03:47:51.259Z,21.77
2019-05-26T03:50:32.807Z,21.87
2019-05-26T03:53:17.011Z,21.30
2019-05-26T03:59:45.869Z,20.03
2019-05-26T04:02:17.632Z,20.43
2019-05-26T04:04:50.109Z,21.47
2019-05-26T04:07:30.045Z,20.43
2019-05-26T04:10:19.464Z,21.70
2019-05-26T04:13:20.040Z,22.43
2019-05-26T04:16:00.952Z,22.07
2019-05-26T04:18:36.166Z,23.23
2019-05-26T04:21:05.525Z,21.40
2019-05-26T04:23:41.186Z,21.27
2019-05-26T04:26:10.538Z,21.83
2019-05-26T04:28:50.943Z,22.10
2019-05-26T04:31:30.610Z,21.10
2019-05-26T04:34:03.079Z,21.33
2019-05-26T04:36:37.486Z,21.50
2019-05-26T04:39:40.564Z,21.97
2019-05-26T04:42:14.804Z,21.37
2019-05-26T04:44:44.210Z,23.47
2019-05-26T04:47:13.601Z,22.03
2019-05-26T04:49:48.890Z,20.87
2019-05-26T04:52:20.075Z,20.43
2019-05-26T04:55:22.819Z,22.10
2019-05-26T04:57:52.495Z,20.67
2019-05-26T05:00:32.595Z,21.97
2019-05-26T05:03:09.868Z,20.30
2019-05-26T05:06:06.166Z,21.37
2019-05-26T05:08:40.994Z,20.67
2019-05-26T05:11:52.688Z,20.43
2019-05-26T05:14:29.194Z,19.00
2019-05-26T05:16:58.870Z,19.93
2019-05-26T05:19:30.862Z,18.87
2019-05-26T05:21:59.597Z,22.03
2019-05-26T05:24:29.387Z,19.33
2019-05-26T05:26:58.163Z,20.47
2019-05-26T05:29:26.929Z,19.07
2019-05-26T05:31:55.689Z,20.20
2019-05-26T05:34:24.450Z,18.57
2019-05-26T05:36:53.072Z,19.27
2019-05-26T05:39:22.018Z,18.07
2019-05-26T05:41:50.616Z,18.43
2019-05-26T05:44:19.328Z,18.20
2019-05-26T05:46:47.983Z,17.63
2019-05-26T05:49:16.571Z,18.03
2019-05-26T05:51:45.273Z,17.63
2019-05-26T05:54:14.429Z,17.17
2019-05-26T05:56:43.027Z,17.47
2019-05-26T05:59:11.658Z,17.43
2019-05-26T06:01:40.297Z,15.87
2019-05-26T06:04:08.886Z,15.97
2019-05-26T06:06:38.103Z,15.97
2019-05-26T06:09:07.207Z,16.97
2019-05-26T06:11:35.859Z,17.07
2019-05-26T06:14:04.471Z,16.10
2019-05-26T06:16:33.970Z,15.83
2019-05-26T06:19:02.691Z,14.23
2019-05-26T06:21:31.322Z,13.77
2019-05-26T06:23:59.997Z,13.97
2019-05-26T06:26:28.606Z,15.23
2019-05-26T06:28:57.299Z,16.17
2019-05-26T06:31:26.011Z,15.30
2019-05-26T06:33:54.646Z,15.33
2019-05-26T06:36:24.271Z,15.30
2019-05-26T06:38:52.958Z,14.80
2019-05-26T06:41:33.088Z,14.57
2019-05-26T06:43:52.120Z,15.80
2019-05-26T06:46:20.855Z,15.20
2019-05-26T06:48:49.544Z,15.40
2019-05-26T06:51:18.237Z,14.60
2019-05-26T06:53:46.886Z,15.07
2019-05-26T06:56:15.513Z,13.80
2019-05-26T06:58:44.174Z,13.30
2019-05-26T07:01:12.851Z,13.90
2019-05-26T07:03:41.448Z,13.43
2019-05-26T07:06:10.306Z,13.00
2019-05-26T07:08:38.927Z,13.20
2019-05-26T07:11:07.593Z,12.90
2019-05-26T07:13:36.266Z,13.33
2019-05-26T07:16:04.943Z,12.77
2019-05-26T07:18:33.539Z,12.10
2019-05-26T07:21:02.272Z,11.83
2019-05-26T07:23:30.935Z,12.23
2019-05-26T07:26:00.088Z,12.10
2019-05-26T07:28:28.998Z,11.53
2019-05-26T07:30:57.583Z,11.30
2019-05-26T07:33:26.224Z,10.23
2019-05-26T07:35:55.254Z,10.17
2019-05-26T07:38:23.841Z,9.30
2019-05-26T07:40:52.474Z,9.07
2019-05-26T07:43:21.112Z,9.77
2019-05-26T07:45:49.719Z,10.20
2019-05-26T07:48:18.367Z,8.97
2019-05-26T07:50:46.958Z,8.67
2019-05-26T07:53:15.554Z,8.43
2019-05-26T07:55:44.231Z,8.70
2019-05-26T07:58:12.835Z,8.67
2019-05-26T08:00:41.524Z,8.93
2019-05-26T08:03:10.623Z,8.03
2019-05-26T08:05:39.210Z,6.78
2019-05-26T08:08:13.081Z,5.97
2019-05-26T08:10:38.214Z,6.10
2019-05-26T08:13:06.876Z,6.10
2019-05-26T08:15:35.727Z,5.55
2019-05-26T08:18:04.393Z,5.12
2019-05-26T08:20:33.022Z,4.90
2019-05-26T08:23:01.762Z,4.92
2019-05-26T08:25:30.413Z,5.30
2019-05-26T08:27:59.070Z,6.25
2019-05-26T08:30:27.676Z,6.33
2019-05-26T08:32:56.450Z,6.47
2019-05-26T08:35:25.067Z,6.22
2019-05-26T08:37:53.855Z,5.97
2019-05-26T08:40:22.736Z,5.90
2019-05-26T08:42:51.571Z,5.85
2019-05-26T08:45:22.014Z,6.35
2019-05-26T08:47:50.978Z,5.78
2019-05-26T08:50:19.956Z,5.65
2019-05-26T08:52:48.604Z,5.50
2019-05-26T08:55:17.206Z,5.58
2019-05-26T08:57:45.935Z,5.15
2019-05-26T09:00:16.256Z,5.37
2019-05-26T09:02:44.866Z,5.05
2019-05-26T09:05:13.455Z,5.28
2019-05-26T09:07:42.060Z,5.10
2019-05-26T09:10:10.730Z,5.10
2019-05-26T09:12:39.687Z,5.10
2019-05-26T09:15:08.314Z,4.70
2019-05-26T09:17:37.306Z,5.08
2019-05-26T09:20:06.319Z,4.37
2019-05-26T09:22:35.000Z,5.22
2019-05-26T09:25:04.408Z,4.50
2019-05-26T09:27:33.486Z,4.05
2019-05-26T09:30:02.430Z,3.95
2019-05-26T09:32:31.082Z,3.22
2019-05-26T09:35:00.020Z,3.80
2019-05-26T09:37:28.678Z,3.90
2019-05-26T09:39:57.327Z,3.92
2019-05-26T09:42:25.997Z,3.70
2019-05-26T09:44:54.611Z,4.05
2019-05-26T09:47:23.295Z,3.08
2019-05-26T09:49:51.990Z,3.40
2019-05-26T09:52:20.651Z,3.05
2019-05-26T09:54:49.339Z,2.80
2019-05-26T09:57:18.127Z,2.75
2019-05-26T09:59:46.816Z,2.83
2019-05-26T10:02:15.544Z,2.80
2019-05-26T10:04:44.558Z,2.83
2019-05-26T10:07:15.820Z,3.27
2019-05-26T10:09:43.593Z,2.52
2019-05-26T10:12:12.735Z,2.72
2019-05-26T10:14:41.470Z,2.67
2019-05-26T10:17:10.071Z,2.17
2019-05-26T10:19:38.764Z,2.10
2019-05-26T10:22:07.430Z,2.22
2019-05-26T10:24:36.875Z,2.08
2019-05-26T10:27:05.876Z,2.72
2019-05-26T10:29:34.503Z,2.45
2019-05-26T10:32:03.087Z,2.30
2019-05-26T10:34:31.831Z,2.27
2019-05-26T10:37:00.459Z,1.92
2019-05-26T10:39:29.203Z,2.35
2019-05-26T10:41:57.853Z,2.10
2019-05-26T10:44:30.819Z,2.52
2019-05-26T10:46:59.532Z,2.00
2019-05-26T10:49:28.192Z,1.92
2019-05-26T10:51:56.918Z,1.98
2019-05-26T10:54:25.671Z,1.90
2019-05-26T10:56:54.357Z,1.92
2019-05-26T10:59:23.053Z,1.62
2019-05-26T11:01:51.719Z,1.75
2019-05-26T11:04:20.424Z,1.60
2019-05-26T11:06:49.091Z,1.87
2019-05-26T11:09:17.681Z,1.90
2019-05-26T11:11:46.278Z,1.45
2019-05-26T11:14:15.047Z,1.60
2019-05-26T11:16:43.988Z,1.75
2019-05-26T11:19:12.623Z,1.70
2019-05-26T11:21:41.304Z,1.90
2019-05-26T11:24:10.004Z,1.98
2019-05-26T11:26:38.691Z,1.65
2019-05-26T11:29:07.582Z,1.98
2019-05-26T11:31:36.262Z,1.87
2019-05-26T11:34:04.933Z,1.40
2019-05-26T11:36:33.574Z,1.50
2019-05-26T11:39:02.481Z,1.70
2019-05-26T11:41:31.117Z,1.40
2019-05-26T11:43:59.777Z,1.62
2019-05-26T11:46:28.361Z,1.50
2019-05-26T11:48:57.346Z,1.87
2019-05-26T11:51:25.946Z,1.72
2019-05-26T11:53:54.657Z,1.42
2019-05-26T11:56:23.329Z,1.55
2019-05-26T11:58:52.004Z,1.60
2019-05-26T12:01:22.921Z,1.57
2019-05-26T12:03:51.693Z,1.92
2019-05-26T12:06:20.323Z,1.72
2019-05-26T12:08:48.895Z,1.50
2019-05-26T12:11:17.566Z,1.98
2019-05-26T12:13:46.482Z,1.90
2019-05-26T12:16:15.146Z,2.00
2019-05-26T12:18:43.851Z,1.87
2019-05-26T12:21:12.524Z,1.80
2019-05-26T12:23:41.307Z,1.55
2019-05-26T12:26:10.518Z,1.60
2019-05-26T12:28:39.210Z,1.62
2019-05-26T12:31:07.894Z,1.25
2019-05-26T12:33:42.871Z,1.75
2019-05-26T12:36:11.656Z,1.42
2019-05-26T12:38:50.775Z,1.70
2019-05-26T12:41:23.189Z,1.75
2019-05-26T12:43:51.883Z,1.70
2019-05-26T12:46:20.558Z,1.55
2019-05-26T12:48:49.575Z,2.02
2019-05-26T12:51:18.256Z,2.05
2019-05-26T12:53:47.071Z,1.72
2019-05-26T12:56:15.712Z,1.62
2019-05-26T12:58:44.302Z,2.08
2019-05-26T13:01:12.913Z,1.42
2019-05-26T13:03:41.560Z,1.75
2019-05-26T13:06:10.151Z,1.60
2019-05-26T13:08:38.750Z,1.60
2019-05-26T13:11:07.416Z,1.65
2019-05-26T13:13:36.571Z,2.30
2019-05-26T13:16:05.271Z,1.95
2019-05-26T13:18:33.883Z,2.10
2019-05-26T13:21:02.460Z,2.00
2019-05-26T13:23:31.078Z,1.60
2019-05-26T13:25:59.730Z,1.50
2019-05-26T13:28:28.324Z,2.00
2019-05-26T13:30:57.791Z,1.60
2019-05-26T13:33:26.709Z,1.52
2019-05-26T13:35:55.291Z,1.90
2019-05-26T13:38:23.902Z,2.33
2019-05-26T13:40:52.971Z,2.20
2019-05-26T13:43:21.562Z,1.67
2019-05-26T13:45:50.279Z,2.22
2019-05-26T13:48:18.941Z,2.20
2019-05-26T13:50:47.610Z,1.85
2019-05-26T13:53:16.219Z,1.82
2019-05-26T13:55:45.264Z,1.80
2019-05-26T13:58:13.868Z,1.75
2019-05-26T14:00:42.755Z,2.22
2019-05-26T14:03:11.344Z,1.65
2019-05-26T14:05:40.202Z,1.27
2019-05-26T14:08:08.849Z,2.00
2019-05-26T14:10:37.590Z,1.55
2019-05-26T14:13:06.278Z,1.47
2019-05-26T14:15:38.790Z,2.20
2019-05-26T14:18:05.367Z,1.92
2019-05-26T14:20:35.563Z,1.80
2019-05-26T14:23:04.998Z,1.75
2019-05-26T14:25:34.006Z,1.50
2019-05-26T14:28:02.644Z,1.87
2019-05-26T14:30:31.341Z,2.27
2019-05-26T14:32:59.934Z,2.05
2019-05-26T14:35:28.555Z,2.12
2019-05-26T14:37:57.171Z,1.95
2019-05-26T14:40:25.844Z,2.00
2019-05-26T14:42:54.611Z,1.80
2019-05-26T14:45:23.215Z,2.83
2019-05-26T14:47:51.884Z,2.35
2019-05-26T14:50:20.866Z,2.08
2019-05-26T14:52:49.478Z,1.98
2019-05-26T14:55:18.139Z,2.20
2019-05-26T14:57:46.995Z,2.02
2019-05-26T15:00:15.722Z,1.82
2019-05-26T15:02:44.317Z,1.45
2019-05-26T15:05:13.232Z,1.50
2019-05-26T15:07:41.891Z,2.00
2019-05-26T15:10:10.566Z,2.00
2019-05-26T15:12:39.188Z,2.08
2019-05-26T15:15:07.875Z,2.20
2019-05-26T15:17:36.537Z,1.60
2019-05-26T15:20:06.240Z,1.62
2019-05-26T15:22:35.322Z,1.62
2019-05-26T15:25:04.424Z,2.02
2019-05-26T15:27:33.182Z,1.80
2019-05-26T15:30:01.948Z,1.77
2019-05-26T15:32:30.995Z,1.72
2019-05-26T15:34:59.718Z,1.65
2019-05-26T15:37:28.404Z,1.87
2019-05-26T15:39:57.059Z,2.00
2019-05-26T15:42:25.741Z,1.65
2019-05-26T15:44:54.445Z,2.22
2019-05-26T15:47:23.498Z,2.08
2019-05-26T15:49:52.107Z,2.98
2019-05-26T15:52:20.853Z,2.22
2019-05-26T15:54:49.471Z,2.08
2019-05-26T15:57:18.155Z,1.85
2019-05-26T15:59:46.883Z,2.20
2019-05-26T16:02:15.563Z,2.22
2019-05-26T16:04:45.619Z,1.87
2019-05-26T16:07:14.466Z,2.00
2019-05-26T16:09:43.482Z,2.20
2019-05-26T16:12:12.342Z,2.10
2019-05-26T16:14:41.423Z,2.22
2019-05-26T16:17:10.379Z,1.70
2019-05-26T16:19:38.983Z,1.87
2019-05-26T16:22:07.586Z,2.20
2019-05-26T16:24:36.260Z,1.80
2019-05-26T16:27:18.265Z,2.00
2019-05-26T16:29:35.279Z,2.12
2019-05-26T16:32:03.938Z,2.10
2019-05-26T16:34:32.578Z,2.55
2019-05-26T16:37:01.514Z,2.67
2019-05-26T16:39:36.937Z,2.10
2019-05-26T16:42:00.425Z,2.00
2019-05-26T16:44:29.035Z,2.67
2019-05-26T16:46:57.693Z,2.30
2019-05-26T16:49:26.278Z,2.22
2019-05-26T16:51:55.427Z,2.12
2019-05-26T16:54:24.446Z,2.30
2019-05-26T16:56:53.077Z,2.17
2019-05-26T16:59:21.763Z,2.50
2019-05-26T17:01:50.785Z,2.55
2019-05-26T17:04:19.406Z,1.98
2019-05-26T17:06:48.021Z,1.92
2019-05-26T17:09:16.690Z,1.95
2019-05-26T17:11:45.359Z,2.10
2019-05-26T17:14:14.270Z,2.25
2019-05-26T17:16:42.948Z,1.85
2019-05-26T17:19:11.523Z,1.87
2019-05-26T17:21:40.160Z,1.98
2019-05-26T17:24:08.861Z,2.50
2019-05-26T17:26:37.470Z,2.05
2019-05-26T17:29:06.090Z,2.22
2019-05-26T17:31:35.044Z,2.30
2019-05-26T17:34:03.645Z,2.22
2019-05-26T17:36:32.519Z,2.27
2019-05-26T17:39:01.274Z,2.00
2019-05-26T17:41:30.020Z,2.08
2019-05-26T17:43:58.703Z,2.10
2019-05-26T17:46:27.364Z,2.17
2019-05-26T17:48:55.985Z,2.30
2019-05-26T17:51:24.739Z,2.20
2019-05-26T17:53:53.449Z,2.50
2019-05-26T17:56:22.113Z,2.05
2019-05-26T17:58:50.963Z,2.08
2019-05-26T18:01:19.575Z,2.17
2019-05-26T18:03:48.158Z,2.37
2019-05-26T18:06:16.778Z,2.33
2019-05-26T18:08:45.439Z,2.35
2019-05-26T18:11:14.021Z,2.45
2019-05-26T18:13:46.214Z,2.52
2019-05-26T18:16:13.028Z,2.45
2019-05-26T18:18:41.602Z,2.40
2019-05-26T18:21:10.215Z,2.45
2019-05-26T18:23:38.874Z,2.00
2019-05-26T18:26:07.483Z,2.02
2019-05-26T18:28:36.172Z,1.80
2019-05-26T18:31:04.843Z,1.90
2019-05-26T18:33:33.537Z,1.90
2019-05-26T18:36:02.177Z,2.35
2019-05-26T18:38:30.946Z,2.20
2019-05-26T18:40:59.642Z,2.37
2019-05-26T18:43:28.280Z,2.43
2019-05-26T18:45:56.938Z,2.13
2019-05-26T18:48:25.531Z,2.10
2019-05-26T18:50:54.199Z,2.08
2019-05-26T18:53:22.790Z,2.50
2019-05-26T18:55:51.451Z,2.30
2019-05-26T18:58:20.111Z,2.63
2019-05-26T19:00:49.437Z,2.57
2019-05-26T19:03:18.096Z,2.13
2019-05-26T19:05:47.253Z,2.30
2019-05-26T19:08:15.979Z,2.70
2019-05-26T19:10:44.786Z,2.50
2019-05-26T19:13:13.617Z,2.73
2019-05-26T19:15:42.311Z,3.00
2019-05-26T19:18:19.863Z,2.83
2019-05-26T19:20:41.428Z,3.00
2019-05-26T19:23:10.233Z,2.63
2019-05-26T19:25:41.816Z,2.50
2019-05-26T19:28:09.763Z,2.63
2019-05-26T19:30:38.837Z,2.87
2019-05-26T19:33:09.659Z,2.63
2019-05-26T19:35:38.259Z,3.00
2019-05-26T19:38:07.384Z,2.80
2019-05-26T19:40:36.031Z,3.53
2019-05-26T19:43:10.909Z,2.83
2019-05-26T19:45:42.823Z,3.20
2019-05-26T19:48:11.678Z,2.80
2019-05-26T19:50:40.303Z,3.30
2019-05-26T19:53:08.967Z,3.60
2019-05-26T19:55:37.587Z,3.23
2019-05-26T19:58:06.283Z,3.33
2019-05-26T20:00:34.941Z,3.13
2019-05-26T20:03:03.603Z,3.90
2019-05-26T20:05:32.196Z,3.50
2019-05-26T20:08:01.847Z,3.37
2019-05-26T20:10:30.563Z,3.60
2019-05-26T20:12:59.179Z,3.63
2019-05-26T20:15:27.887Z,3.80
2019-05-26T20:17:56.551Z,3.67
2019-05-26T20:20:26.201Z,3.70
2019-05-26T20:22:54.868Z,3.63
2019-05-26T20:25:24.128Z,3.93
2019-05-26T20:27:52.837Z,4.17
2019-05-26T20:30:27.702Z,4.50
2019-05-26T20:32:56.527Z,4.10
2019-05-26T20:35:28.147Z,3.67
2019-05-26T20:37:58.444Z,3.70
2019-05-26T20:40:29.242Z,4.53
2019-05-26T20:42:58.080Z,5.10
2019-05-26T20:45:26.771Z,4.47
2019-05-26T20:47:55.416Z,4.20
2019-05-26T20:50:29.286Z,4.33
2019-05-26T20:52:54.592Z,4.77
2019-05-26T20:55:23.411Z,4.33
2019-05-26T20:57:52.026Z,4.27
2019-05-26T21:00:20.721Z,4.07
2019-05-26T21:02:49.384Z,4.60
2019-05-26T21:05:18.055Z,4.50
2019-05-26T21:07:46.784Z,4.27
2019-05-26T21:10:15.430Z,5.10
2019-05-26T21:12:44.155Z,4.80
2019-05-26T21:15:12.833Z,5.20
2019-05-26T21:17:41.493Z,4.70
2019-05-26T21:20:12.403Z,4.73
2019-05-26T21:22:41.031Z,5.37
2019-05-26T21:25:09.697Z,4.73
2019-05-26T21:27:39.545Z,4.70
2019-05-26T21:30:08.554Z,4.77
2019-05-26T21:32:37.173Z,4.27
2019-05-26T21:35:05.967Z,4.70
2019-05-26T21:37:34.581Z,4.80
2019-05-26T21:40:03.316Z,5.33
2019-05-26T21:42:31.918Z,4.87
2019-05-26T21:45:00.625Z,4.90
2019-05-26T21:47:30.330Z,5.00
2019-05-26T21:49:59.006Z,4.27
2019-05-26T21:52:27.864Z,4.20
2019-05-26T21:54:56.475Z,4.40
2019-05-26T21:57:25.170Z,4.77
2019-05-26T21:59:54.371Z,5.00
